sensor_id;sensor_type;location;lat;lon;timestamp;P1;durP1;ratioP1;P2;durP2;ratioP2
25263;SDS011;13211;51.796;5.808;2023-08-30T00:02:14;13.65;;;9.88;;
25263;SDS011;13211;51.796;5.808;2023-08-30T00:04:43;13.30;;;8.70;;
25263;SDS011;13211;51.796;5.808;2023-08-30T00:07:12;11.73;;;8.30;;
25263;SDS011;13211;51.796;5.808;2023-08-30T00:09:40;11.18;;;8.00;;
25263;SDS011;13211;51.796;5.808;2023-08-30T00:12:08;13.65;;;8.73;;
25263;SDS011;13211;51.796;5.808;2023-08-30T00:14:36;15.25;;;8.57;;
25263;SDS011;13211;51.796;5.808;2023-08-30T00:17:04;15.05;;;8.77;;
25263;SDS011;13211;51.796;5.808;2023-08-30T00:19:36;10.80;;;7.88;;
25263;SDS011;13211;51.796;5.808;2023-08-30T00:22:03;11.98;;;8.20;;
25263;SDS011;13211;51.796;5.808;2023-08-30T00:24:34;12.95;;;8.63;;
25263;SDS011;13211;51.796;5.808;2023-08-30T00:27:01;11.65;;;8.40;;
25263;SDS011;13211;51.796;5.808;2023-08-30T00:29:29;13.13;;;8.50;;
25263;SDS011;13211;51.796;5.808;2023-08-30T00:31:57;11.75;;;8.05;;
25263;SDS011;13211;51.796;5.808;2023-08-30T00:34:25;12.95;;;8.48;;
25263;SDS011;13211;51.796;5.808;2023-08-30T00:36:53;14.85;;;9.18;;
25263;SDS011;13211;51.796;5.808;2023-08-30T00:39:20;21.27;;;9.65;;
25263;SDS011;13211;51.796;5.808;2023-08-30T00:41:51;12.98;;;9.43;;
25263;SDS011;13211;51.796;5.808;2023-08-30T00:44:19;14.20;;;9.15;;
25263;SDS011;13211;51.796;5.808;2023-08-30T00:46:46;13.43;;;9.75;;
25263;SDS011;13211;51.796;5.808;2023-08-30T00:49:14;15.63;;;9.88;;
25263;SDS011;13211;51.796;5.808;2023-08-30T00:51:42;14.27;;;10.07;;
25263;SDS011;13211;51.796;5.808;2023-08-30T00:54:11;14.52;;;10.40;;
25263;SDS011;13211;51.796;5.808;2023-08-30T00:56:42;15.93;;;9.50;;
25263;SDS011;13211;51.796;5.808;2023-08-30T00:59:10;18.42;;;10.10;;
25263;SDS011;13211;51.796;5.808;2023-08-30T01:01:38;14.68;;;9.35;;
25263;SDS011;13211;51.796;5.808;2023-08-30T01:04:08;18.23;;;9.80;;
25263;SDS011;13211;51.796;5.808;2023-08-30T01:06:36;13.50;;;9.07;;
25263;SDS011;13211;51.796;5.808;2023-08-30T01:09:05;14.00;;;9.20;;
25263;SDS011;13211;51.796;5.808;2023-08-30T01:11:43;16.25;;;9.45;;
25263;SDS011;13211;51.796;5.808;2023-08-30T01:14:22;16.08;;;10.00;;
25263;SDS011;13211;51.796;5.808;2023-08-30T01:16:56;16.17;;;10.25;;
25263;SDS011;13211;51.796;5.808;2023-08-30T01:19:46;15.02;;;10.13;;
25263;SDS011;13211;51.796;5.808;2023-08-30T01:27:23;15.77;;;10.70;;
25263;SDS011;13211;51.796;5.808;2023-08-30T01:29:52;15.25;;;10.32;;
25263;SDS011;13211;51.796;5.808;2023-08-30T01:32:22;15.18;;;10.18;;
25263;SDS011;13211;51.796;5.808;2023-08-30T01:34:52;15.68;;;9.95;;
25263;SDS011;13211;51.796;5.808;2023-08-30T01:37:20;16.00;;;9.13;;
25263;SDS011;13211;51.796;5.808;2023-08-30T01:39:54;14.38;;;9.82;;
25263;SDS011;13211;51.796;5.808;2023-08-30T01:42:24;13.25;;;9.20;;
25263;SDS011;13211;51.796;5.808;2023-08-30T01:44:55;15.00;;;10.00;;
25263;SDS011;13211;51.796;5.808;2023-08-30T01:47:25;12.15;;;8.95;;
25263;SDS011;13211;51.796;5.808;2023-08-30T01:49:54;16.65;;;9.27;;
25263;SDS011;13211;51.796;5.808;2023-08-30T01:52:29;17.30;;;10.35;;
25263;SDS011;13211;51.796;5.808;2023-08-30T01:54:57;13.93;;;9.88;;
25263;SDS011;13211;51.796;5.808;2023-08-30T01:57:26;16.08;;;9.93;;
25263;SDS011;13211;51.796;5.808;2023-08-30T01:59:58;17.45;;;9.90;;
25263;SDS011;13211;51.796;5.808;2023-08-30T02:02:29;17.60;;;9.70;;
25263;SDS011;13211;51.796;5.808;2023-08-30T02:04:57;15.75;;;9.13;;
25263;SDS011;13211;51.796;5.808;2023-08-30T02:07:35;16.15;;;10.02;;
25263;SDS011;13211;51.796;5.808;2023-08-30T02:10:09;12.48;;;9.60;;
25263;SDS011;13211;51.796;5.808;2023-08-30T02:12:42;15.07;;;9.68;;
25263;SDS011;13211;51.796;5.808;2023-08-30T02:15:11;15.30;;;9.55;;
25263;SDS011;13211;51.796;5.808;2023-08-30T02:17:41;16.13;;;9.90;;
25263;SDS011;13211;51.796;5.808;2023-08-30T02:20:09;16.92;;;9.50;;
25263;SDS011;13211;51.796;5.808;2023-08-30T02:22:37;12.88;;;8.93;;
25263;SDS011;13211;51.796;5.808;2023-08-30T02:25:05;19.73;;;9.70;;
25263;SDS011;13211;51.796;5.808;2023-08-30T02:27:37;13.70;;;9.45;;
25263;SDS011;13211;51.796;5.808;2023-08-30T02:30:05;14.30;;;9.23;;
25263;SDS011;13211;51.796;5.808;2023-08-30T02:32:32;23.10;;;9.00;;
25263;SDS011;13211;51.796;5.808;2023-08-30T02:35:01;14.85;;;8.85;;
25263;SDS011;13211;51.796;5.808;2023-08-30T02:37:29;11.60;;;8.38;;
25263;SDS011;13211;51.796;5.808;2023-08-30T02:39:57;16.55;;;8.85;;
25263;SDS011;13211;51.796;5.808;2023-08-30T02:42:29;12.40;;;8.20;;
25263;SDS011;13211;51.796;5.808;2023-08-30T02:44:58;12.70;;;8.88;;
25263;SDS011;13211;51.796;5.808;2023-08-30T02:47:25;17.23;;;9.27;;
25263;SDS011;13211;51.796;5.808;2023-08-30T02:49:54;15.07;;;9.88;;
25263;SDS011;13211;51.796;5.808;2023-08-30T02:52:23;9.87;;;7.33;;
25263;SDS011;13211;51.796;5.808;2023-08-30T02:54:51;16.13;;;10.10;;
25263;SDS011;13211;51.796;5.808;2023-08-30T02:57:19;16.88;;;10.93;;
25263;SDS011;13211;51.796;5.808;2023-08-30T02:59:47;14.15;;;9.65;;
25263;SDS011;13211;51.796;5.808;2023-08-30T03:02:16;16.55;;;11.77;;
25263;SDS011;13211;51.796;5.808;2023-08-30T03:04:49;18.73;;;12.30;;
25263;SDS011;13211;51.796;5.808;2023-08-30T03:07:20;18.33;;;12.38;;
25263;SDS011;13211;51.796;5.808;2023-08-30T03:09:51;19.25;;;12.32;;
25263;SDS011;13211;51.796;5.808;2023-08-30T03:12:20;19.58;;;12.82;;
25263;SDS011;13211;51.796;5.808;2023-08-30T03:14:48;23.90;;;13.02;;
25263;SDS011;13211;51.796;5.808;2023-08-30T03:17:16;21.05;;;12.73;;
25263;SDS011;13211;51.796;5.808;2023-08-30T03:19:44;18.77;;;13.70;;
25263;SDS011;13211;51.796;5.808;2023-08-30T03:22:12;17.92;;;13.05;;
25263;SDS011;13211;51.796;5.808;2023-08-30T03:24:44;21.23;;;12.45;;
25263;SDS011;13211;51.796;5.808;2023-08-30T03:27:12;25.95;;;13.60;;
25263;SDS011;13211;51.796;5.808;2023-08-30T03:29:41;21.08;;;13.77;;
25263;SDS011;13211;51.796;5.808;2023-08-30T03:32:09;23.52;;;13.75;;
25263;SDS011;13211;51.796;5.808;2023-08-30T03:34:38;20.70;;;12.65;;
25263;SDS011;13211;51.796;5.808;2023-08-30T03:37:06;22.25;;;13.60;;
25263;SDS011;13211;51.796;5.808;2023-08-30T03:39:39;22.42;;;11.63;;
25263;SDS011;13211;51.796;5.808;2023-08-30T03:42:07;18.30;;;12.85;;
25263;SDS011;13211;51.796;5.808;2023-08-30T03:44:37;23.02;;;13.30;;
25263;SDS011;13211;51.796;5.808;2023-08-30T03:47:06;20.27;;;12.63;;
25263;SDS011;13211;51.796;5.808;2023-08-30T03:49:39;21.45;;;13.27;;
25263;SDS011;13211;51.796;5.808;2023-08-30T03:52:07;20.40;;;12.15;;
25263;SDS011;13211;51.796;5.808;2023-08-30T03:54:35;17.85;;;12.75;;
25263;SDS011;13211;51.796;5.808;2023-08-30T03:57:03;22.00;;;12.65;;
25263;SDS011;13211;51.796;5.808;2023-08-30T03:59:31;20.40;;;12.90;;
25263;SDS011;13211;51.796;5.808;2023-08-30T04:02:00;24.20;;;13.18;;
25263;SDS011;13211;51.796;5.808;2023-08-30T04:04:28;21.40;;;12.65;;
25263;SDS011;13211;51.796;5.808;2023-08-30T04:06:57;23.58;;;13.05;;
25263;SDS011;13211;51.796;5.808;2023-08-30T04:09:26;19.55;;;12.27;;
25263;SDS011;13211;51.796;5.808;2023-08-30T04:11:56;20.42;;;13.23;;
25263;SDS011;13211;51.796;5.808;2023-08-30T04:14:28;22.70;;;12.00;;
25263;SDS011;13211;51.796;5.808;2023-08-30T04:16:56;24.25;;;12.98;;
25263;SDS011;13211;51.796;5.808;2023-08-30T04:19:24;20.35;;;12.80;;
25263;SDS011;13211;51.796;5.808;2023-08-30T04:21:53;21.73;;;12.18;;
25263;SDS011;13211;51.796;5.808;2023-08-30T04:24:25;20.58;;;12.43;;
25263;SDS011;13211;51.796;5.808;2023-08-30T04:26:53;23.63;;;12.75;;
25263;SDS011;13211;51.796;5.808;2023-08-30T04:29:26;17.60;;;12.43;;
25263;SDS011;13211;51.796;5.808;2023-08-30T04:31:57;19.77;;;12.32;;
25263;SDS011;13211;51.796;5.808;2023-08-30T04:34:26;20.63;;;13.00;;
25263;SDS011;13211;51.796;5.808;2023-08-30T04:37:01;22.05;;;13.10;;
25263;SDS011;13211;51.796;5.808;2023-08-30T04:39:31;20.90;;;12.73;;
25263;SDS011;13211;51.796;5.808;2023-08-30T04:41:59;22.67;;;13.65;;
25263;SDS011;13211;51.796;5.808;2023-08-30T04:44:32;27.38;;;13.80;;
25263;SDS011;13211;51.796;5.808;2023-08-30T04:46:59;22.83;;;13.82;;
25263;SDS011;13211;51.796;5.808;2023-08-30T04:49:27;25.08;;;14.13;;
25263;SDS011;13211;51.796;5.808;2023-08-30T04:51:56;20.73;;;13.45;;
25263;SDS011;13211;51.796;5.808;2023-08-30T04:54:28;19.58;;;13.63;;
25263;SDS011;13211;51.796;5.808;2023-08-30T04:56:57;26.37;;;13.63;;
25263;SDS011;13211;51.796;5.808;2023-08-30T04:59:25;21.75;;;13.63;;
25263;SDS011;13211;51.796;5.808;2023-08-30T05:01:54;25.02;;;14.18;;
25263;SDS011;13211;51.796;5.808;2023-08-30T05:04:25;21.33;;;12.98;;
25263;SDS011;13211;51.796;5.808;2023-08-30T05:06:57;20.05;;;12.77;;
25263;SDS011;13211;51.796;5.808;2023-08-30T05:09:26;21.33;;;13.45;;
25263;SDS011;13211;51.796;5.808;2023-08-30T05:11:54;23.95;;;14.32;;
25263;SDS011;13211;51.796;5.808;2023-08-30T05:14:22;20.15;;;13.27;;
25263;SDS011;13211;51.796;5.808;2023-08-30T05:16:50;22.63;;;14.45;;
25263;SDS011;13211;51.796;5.808;2023-08-30T05:19:20;28.92;;;14.00;;
25263;SDS011;13211;51.796;5.808;2023-08-30T05:21:49;23.83;;;13.70;;
25263;SDS011;13211;51.796;5.808;2023-08-30T05:24:21;23.73;;;14.75;;
25263;SDS011;13211;51.796;5.808;2023-08-30T05:26:52;23.20;;;15.05;;
25263;SDS011;13211;51.796;5.808;2023-08-30T05:29:23;21.83;;;15.45;;
25263;SDS011;13211;51.796;5.808;2023-08-30T05:31:51;28.20;;;17.63;;
25263;SDS011;13211;51.796;5.808;2023-08-30T05:34:25;28.73;;;17.05;;
25263;SDS011;13211;51.796;5.808;2023-08-30T05:37:12;29.20;;;17.35;;
25263;SDS011;13211;51.796;5.808;2023-08-30T05:39:54;32.95;;;19.90;;
25263;SDS011;13211;51.796;5.808;2023-08-30T05:42:22;34.10;;;20.45;;
25263;SDS011;13211;51.796;5.808;2023-08-30T05:44:51;35.85;;;20.00;;
25263;SDS011;13211;51.796;5.808;2023-08-30T05:47:21;32.63;;;20.08;;
25263;SDS011;13211;51.796;5.808;2023-08-30T05:49:49;30.60;;;20.67;;
25263;SDS011;13211;51.796;5.808;2023-08-30T05:52:18;34.33;;;21.58;;
25263;SDS011;13211;51.796;5.808;2023-08-30T05:54:46;34.03;;;21.17;;
25263;SDS011;13211;51.796;5.808;2023-08-30T05:57:14;37.80;;;22.02;;
25263;SDS011;13211;51.796;5.808;2023-08-30T05:59:42;43.55;;;21.70;;
25263;SDS011;13211;51.796;5.808;2023-08-30T06:02:10;29.48;;;20.85;;
25263;SDS011;13211;51.796;5.808;2023-08-30T06:04:37;32.20;;;20.65;;
25263;SDS011;13211;51.796;5.808;2023-08-30T06:07:06;32.63;;;21.10;;
25263;SDS011;13211;51.796;5.808;2023-08-30T06:09:35;31.92;;;20.70;;
25263;SDS011;13211;51.796;5.808;2023-08-30T06:12:03;33.08;;;20.40;;
25263;SDS011;13211;51.796;5.808;2023-08-30T06:14:32;32.58;;;20.25;;
25263;SDS011;13211;51.796;5.808;2023-08-30T06:17:00;30.00;;;20.15;;
25263;SDS011;13211;51.796;5.808;2023-08-30T06:19:28;33.22;;;19.88;;
25263;SDS011;13211;51.796;5.808;2023-08-30T06:21:55;29.85;;;19.60;;
25263;SDS011;13211;51.796;5.808;2023-08-30T06:24:23;30.70;;;20.45;;
25263;SDS011;13211;51.796;5.808;2023-08-30T06:26:52;28.88;;;19.30;;
25263;SDS011;13211;51.796;5.808;2023-08-30T06:29:20;28.83;;;19.00;;
25263;SDS011;13211;51.796;5.808;2023-08-30T06:31:48;33.30;;;19.00;;
25263;SDS011;13211;51.796;5.808;2023-08-30T06:34:15;34.28;;;20.27;;
25263;SDS011;13211;51.796;5.808;2023-08-30T06:39:19;31.92;;;19.13;;
25263;SDS011;13211;51.796;5.808;2023-08-30T06:41:47;25.42;;;19.02;;
25263;SDS011;13211;51.796;5.808;2023-08-30T06:44:16;28.73;;;19.17;;
25263;SDS011;13211;51.796;5.808;2023-08-30T06:46:43;29.08;;;18.92;;
25263;SDS011;13211;51.796;5.808;2023-08-30T06:49:11;27.17;;;17.58;;
25263;SDS011;13211;51.796;5.808;2023-08-30T06:51:39;29.52;;;19.55;;
25263;SDS011;13211;51.796;5.808;2023-08-30T06:54:12;33.58;;;19.45;;
25263;SDS011;13211;51.796;5.808;2023-08-30T06:56:40;25.48;;;17.27;;
25263;SDS011;13211;51.796;5.808;2023-08-30T06:59:10;27.73;;;18.08;;
25263;SDS011;13211;51.796;5.808;2023-08-30T07:01:37;29.02;;;18.27;;
25263;SDS011;13211;51.796;5.808;2023-08-30T07:04:05;26.77;;;17.13;;
25263;SDS011;13211;51.796;5.808;2023-08-30T07:06:45;26.63;;;17.33;;
25263;SDS011;13211;51.796;5.808;2023-08-30T07:09:12;31.50;;;19.30;;
25263;SDS011;13211;51.796;5.808;2023-08-30T07:11:42;25.08;;;16.75;;
25263;SDS011;13211;51.796;5.808;2023-08-30T07:14:13;29.38;;;17.85;;
25263;SDS011;13211;51.796;5.808;2023-08-30T07:16:42;27.30;;;17.75;;
25263;SDS011;13211;51.796;5.808;2023-08-30T07:19:10;27.58;;;18.65;;
25263;SDS011;13211;51.796;5.808;2023-08-30T07:21:42;27.73;;;17.90;;
25263;SDS011;13211;51.796;5.808;2023-08-30T07:24:10;29.73;;;18.00;;
25263;SDS011;13211;51.796;5.808;2023-08-30T07:26:38;33.08;;;19.15;;
25263;SDS011;13211;51.796;5.808;2023-08-30T07:29:06;33.67;;;19.98;;
25263;SDS011;13211;51.796;5.808;2023-08-30T07:31:34;31.45;;;18.45;;
25263;SDS011;13211;51.796;5.808;2023-08-30T07:34:02;26.08;;;17.02;;
25263;SDS011;13211;51.796;5.808;2023-08-30T07:36:30;25.20;;;17.90;;
25263;SDS011;13211;51.796;5.808;2023-08-30T07:39:15;32.42;;;18.05;;
25263;SDS011;13211;51.796;5.808;2023-08-30T07:41:43;29.67;;;19.00;;
25263;SDS011;13211;51.796;5.808;2023-08-30T07:44:11;30.23;;;18.17;;
25263;SDS011;13211;51.796;5.808;2023-08-30T07:46:39;29.65;;;18.30;;
25263;SDS011;13211;51.796;5.808;2023-08-30T07:49:10;31.35;;;17.85;;
25263;SDS011;13211;51.796;5.808;2023-08-30T07:51:39;29.08;;;18.02;;
25263;SDS011;13211;51.796;5.808;2023-08-30T07:54:07;25.83;;;16.77;;
25263;SDS011;13211;51.796;5.808;2023-08-30T07:56:34;29.45;;;17.67;;
25263;SDS011;13211;51.796;5.808;2023-08-30T07:59:02;28.00;;;17.85;;
25263;SDS011;13211;51.796;5.808;2023-08-30T08:01:34;25.13;;;16.25;;
25263;SDS011;13211;51.796;5.808;2023-08-30T08:04:01;24.35;;;16.10;;
25263;SDS011;13211;51.796;5.808;2023-08-30T08:06:33;25.63;;;16.65;;
25263;SDS011;13211;51.796;5.808;2023-08-30T08:09:04;24.85;;;17.17;;
25263;SDS011;13211;51.796;5.808;2023-08-30T08:11:35;29.23;;;16.98;;
25263;SDS011;13211;51.796;5.808;2023-08-30T08:14:03;25.10;;;17.17;;
25263;SDS011;13211;51.796;5.808;2023-08-30T08:16:31;28.83;;;16.00;;
25263;SDS011;13211;51.796;5.808;2023-08-30T08:19:01;25.95;;;16.70;;
25263;SDS011;13211;51.796;5.808;2023-08-30T08:21:34;27.48;;;17.27;;
25263;SDS011;13211;51.796;5.808;2023-08-30T08:24:01;29.08;;;17.55;;
25263;SDS011;13211;51.796;5.808;2023-08-30T08:26:29;30.45;;;17.65;;
25263;SDS011;13211;51.796;5.808;2023-08-30T08:28:57;33.05;;;18.73;;
25263;SDS011;13211;51.796;5.808;2023-08-30T08:31:25;27.70;;;17.35;;
25263;SDS011;13211;51.796;5.808;2023-08-30T08:36:49;26.73;;;16.33;;
25263;SDS011;13211;51.796;5.808;2023-08-30T08:39:16;27.85;;;16.65;;
25263;SDS011;13211;51.796;5.808;2023-08-30T08:41:46;29.20;;;16.92;;
25263;SDS011;13211;51.796;5.808;2023-08-30T08:46:48;26.42;;;16.73;;
25263;SDS011;13211;51.796;5.808;2023-08-30T08:49:18;27.83;;;16.92;;
25263;SDS011;13211;51.796;5.808;2023-08-30T08:51:46;26.42;;;16.38;;
25263;SDS011;13211;51.796;5.808;2023-08-30T08:54:13;27.17;;;16.55;;
25263;SDS011;13211;51.796;5.808;2023-08-30T08:56:47;24.30;;;15.38;;
25263;SDS011;13211;51.796;5.808;2023-08-30T08:59:15;24.50;;;15.18;;
25263;SDS011;13211;51.796;5.808;2023-08-30T09:01:43;22.30;;;14.70;;
25263;SDS011;13211;51.796;5.808;2023-08-30T09:04:11;21.92;;;14.43;;
25263;SDS011;13211;51.796;5.808;2023-08-30T09:06:44;22.92;;;14.73;;
25263;SDS011;13211;51.796;5.808;2023-08-30T09:09:12;23.73;;;14.05;;
25263;SDS011;13211;51.796;5.808;2023-08-30T09:11:40;24.40;;;14.65;;
25263;SDS011;13211;51.796;5.808;2023-08-30T09:14:10;22.23;;;12.98;;
25263;SDS011;13211;51.796;5.808;2023-08-30T09:16:38;19.95;;;11.93;;
25263;SDS011;13211;51.796;5.808;2023-08-30T09:19:08;15.98;;;10.93;;
25263;SDS011;13211;51.796;5.808;2023-08-30T09:21:49;17.48;;;11.70;;
25263;SDS011;13211;51.796;5.808;2023-08-30T09:24:17;15.05;;;11.35;;
25263;SDS011;13211;51.796;5.808;2023-08-30T09:26:48;17.48;;;10.20;;
25263;SDS011;13211;51.796;5.808;2023-08-30T09:29:17;14.70;;;9.82;;
25263;SDS011;13211;51.796;5.808;2023-08-30T09:31:45;16.75;;;9.30;;
25263;SDS011;13211;51.796;5.808;2023-08-30T09:34:13;14.00;;;9.40;;
25263;SDS011;13211;51.796;5.808;2023-08-30T09:36:41;18.70;;;9.77;;
25263;SDS011;13211;51.796;5.808;2023-08-30T09:39:11;14.50;;;9.27;;
25263;SDS011;13211;51.796;5.808;2023-08-30T09:41:43;12.18;;;8.68;;
25263;SDS011;13211;51.796;5.808;2023-08-30T09:46:41;14.48;;;9.30;;
25263;SDS011;13211;51.796;5.808;2023-08-30T09:49:20;19.50;;;11.05;;
25263;SDS011;13211;51.796;5.808;2023-08-30T09:51:49;15.02;;;10.60;;
25263;SDS011;13211;51.796;5.808;2023-08-30T09:54:38;17.93;;;10.20;;
25263;SDS011;13211;51.796;5.808;2023-08-30T09:57:08;18.95;;;11.20;;
25263;SDS011;13211;51.796;5.808;2023-08-30T09:59:37;16.90;;;10.98;;
25263;SDS011;13211;51.796;5.808;2023-08-30T10:02:07;17.05;;;10.60;;
25263;SDS011;13211;51.796;5.808;2023-08-30T10:04:38;18.52;;;11.25;;
25263;SDS011;13211;51.796;5.808;2023-08-30T10:07:07;20.35;;;11.70;;
25263;SDS011;13211;51.796;5.808;2023-08-30T10:09:37;17.17;;;11.30;;
25263;SDS011;13211;51.796;5.808;2023-08-30T10:12:20;16.52;;;12.40;;
25263;SDS011;13211;51.796;5.808;2023-08-30T10:17:22;17.98;;;12.35;;
25263;SDS011;13211;51.796;5.808;2023-08-30T10:19:51;22.55;;;13.13;;
25263;SDS011;13211;51.796;5.808;2023-08-30T10:22:19;21.70;;;13.43;;
25263;SDS011;13211;51.796;5.808;2023-08-30T10:24:51;18.95;;;13.52;;
25263;SDS011;13211;51.796;5.808;2023-08-30T10:27:39;16.48;;;12.27;;
25263;SDS011;13211;51.796;5.808;2023-08-30T10:30:08;18.85;;;13.38;;
25263;SDS011;13211;51.796;5.808;2023-08-30T10:32:39;17.92;;;13.10;;
25263;SDS011;13211;51.796;5.808;2023-08-30T10:35:10;17.98;;;13.20;;
25263;SDS011;13211;51.796;5.808;2023-08-30T10:37:40;16.05;;;11.80;;
25263;SDS011;13211;51.796;5.808;2023-08-30T10:40:08;16.25;;;11.68;;
25263;SDS011;13211;51.796;5.808;2023-08-30T10:45:23;19.60;;;13.32;;
25263;SDS011;13211;51.796;5.808;2023-08-30T10:47:54;19.48;;;11.75;;
25263;SDS011;13211;51.796;5.808;2023-08-30T10:50:27;14.95;;;11.98;;
25263;SDS011;13211;51.796;5.808;2023-08-30T10:52:57;13.88;;;11.88;;
25263;SDS011;13211;51.796;5.808;2023-08-30T10:55:26;16.10;;;11.77;;
25263;SDS011;13211;51.796;5.808;2023-08-30T10:57:59;14.32;;;11.75;;
25263;SDS011;13211;51.796;5.808;2023-08-30T11:00:27;15.23;;;11.68;;
25263;SDS011;13211;51.796;5.808;2023-08-30T11:02:56;14.63;;;11.27;;
25263;SDS011;13211;51.796;5.808;2023-08-30T11:05:26;16.63;;;11.25;;
25263;SDS011;13211;51.796;5.808;2023-08-30T11:10:27;14.68;;;10.13;;
25263;SDS011;13211;51.796;5.808;2023-08-30T11:12:55;11.38;;;9.57;;
25263;SDS011;13211;51.796;5.808;2023-08-30T11:15:23;13.57;;;9.10;;
25263;SDS011;13211;51.796;5.808;2023-08-30T11:18:01;12.07;;;9.60;;
25263;SDS011;13211;51.796;5.808;2023-08-30T11:20:32;12.32;;;8.85;;
25263;SDS011;13211;51.796;5.808;2023-08-30T11:23:00;12.57;;;9.90;;
25263;SDS011;13211;51.796;5.808;2023-08-30T11:25:30;16.45;;;10.23;;
25263;SDS011;13211;51.796;5.808;2023-08-30T11:28:04;13.20;;;9.27;;
25263;SDS011;13211;51.796;5.808;2023-08-30T11:30:31;13.60;;;10.20;;
25263;SDS011;13211;51.796;5.808;2023-08-30T11:32:59;14.57;;;9.73;;
25263;SDS011;13211;51.796;5.808;2023-08-30T11:35:27;16.80;;;10.63;;
25263;SDS011;13211;51.796;5.808;2023-08-30T11:37:55;19.13;;;10.50;;
25263;SDS011;13211;51.796;5.808;2023-08-30T11:40:22;14.93;;;10.35;;
25263;SDS011;13211;51.796;5.808;2023-08-30T11:42:54;14.73;;;9.60;;
25263;SDS011;13211;51.796;5.808;2023-08-30T11:45:21;12.35;;;8.02;;
25263;SDS011;13211;51.796;5.808;2023-08-30T11:47:49;10.27;;;6.82;;
25263;SDS011;13211;51.796;5.808;2023-08-30T11:50:19;10.57;;;5.72;;
25263;SDS011;13211;51.796;5.808;2023-08-30T11:52:49;10.85;;;4.72;;
25263;SDS011;13211;51.796;5.808;2023-08-30T11:55:17;9.52;;;4.20;;
25263;SDS011;13211;51.796;5.808;2023-08-30T11:57:47;12.27;;;3.90;;
25263;SDS011;13211;51.796;5.808;2023-08-30T12:00:18;12.25;;;3.78;;
25263;SDS011;13211;51.796;5.808;2023-08-30T12:05:14;6.68;;;3.05;;
25263;SDS011;13211;51.796;5.808;2023-08-30T12:07:42;8.73;;;3.33;;
25263;SDS011;13211;51.796;5.808;2023-08-30T12:10:10;12.50;;;3.63;;
25263;SDS011;13211;51.796;5.808;2023-08-30T12:12:43;8.88;;;3.20;;
25263;SDS011;13211;51.796;5.808;2023-08-30T12:15:12;8.32;;;2.75;;
25263;SDS011;13211;51.796;5.808;2023-08-30T12:17:43;13.75;;;2.92;;
25263;SDS011;13211;51.796;5.808;2023-08-30T12:20:17;9.20;;;2.90;;
25263;SDS011;13211;51.796;5.808;2023-08-30T12:22:47;9.30;;;2.80;;
25263;SDS011;13211;51.796;5.808;2023-08-30T12:25:20;7.57;;;2.85;;
25263;SDS011;13211;51.796;5.808;2023-08-30T12:27:52;8.13;;;2.58;;
25263;SDS011;13211;51.796;5.808;2023-08-30T12:30:21;10.77;;;2.90;;
25263;SDS011;13211;51.796;5.808;2023-08-30T12:32:59;9.90;;;2.83;;
25263;SDS011;13211;51.796;5.808;2023-08-30T12:35:35;9.65;;;2.95;;
25263;SDS011;13211;51.796;5.808;2023-08-30T12:38:03;9.13;;;3.08;;
25263;SDS011;13211;51.796;5.808;2023-08-30T12:40:33;9.45;;;3.35;;
25263;SDS011;13211;51.796;5.808;2023-08-30T12:43:02;10.80;;;3.10;;
25263;SDS011;13211;51.796;5.808;2023-08-30T12:45:33;9.07;;;2.38;;
25263;SDS011;13211;51.796;5.808;2023-08-30T12:48:05;11.45;;;3.38;;
25263;SDS011;13211;51.796;5.808;2023-08-30T12:50:35;10.95;;;2.90;;
25263;SDS011;13211;51.796;5.808;2023-08-30T12:53:04;10.48;;;2.58;;
25263;SDS011;13211;51.796;5.808;2023-08-30T12:55:33;8.48;;;2.70;;
25263;SDS011;13211;51.796;5.808;2023-08-30T12:58:01;8.05;;;2.22;;
25263;SDS011;13211;51.796;5.808;2023-08-30T13:00:29;12.55;;;2.75;;
25263;SDS011;13211;51.796;5.808;2023-08-30T13:02:57;9.95;;;2.72;;
25263;SDS011;13211;51.796;5.808;2023-08-30T13:05:27;13.65;;;2.40;;
25263;SDS011;13211;51.796;5.808;2023-08-30T13:08:01;9.40;;;2.40;;
25263;SDS011;13211;51.796;5.808;2023-08-30T13:10:29;13.90;;;2.72;;
25263;SDS011;13211;51.796;5.808;2023-08-30T13:12:56;10.10;;;2.72;;
25263;SDS011;13211;51.796;5.808;2023-08-30T13:15:24;15.73;;;2.22;;
25263;SDS011;13211;51.796;5.808;2023-08-30T13:17:54;13.02;;;2.75;;
25263;SDS011;13211;51.796;5.808;2023-08-30T13:20:26;12.70;;;2.70;;
25263;SDS011;13211;51.796;5.808;2023-08-30T13:22:57;7.38;;;2.20;;
25263;SDS011;13211;51.796;5.808;2023-08-30T13:25:30;12.55;;;2.80;;
25263;SDS011;13211;51.796;5.808;2023-08-30T13:27:58;10.48;;;2.35;;
25263;SDS011;13211;51.796;5.808;2023-08-30T13:30:26;9.32;;;2.22;;
25263;SDS011;13211;51.796;5.808;2023-08-30T13:32:54;17.20;;;3.17;;
25263;SDS011;13211;51.796;5.808;2023-08-30T13:35:21;9.90;;;2.45;;
25263;SDS011;13211;51.796;5.808;2023-08-30T13:37:49;10.80;;;2.25;;
25263;SDS011;13211;51.796;5.808;2023-08-30T13:40:17;8.02;;;1.90;;
25263;SDS011;13211;51.796;5.808;2023-08-30T13:42:46;9.38;;;2.85;;
25263;SDS011;13211;51.796;5.808;2023-08-30T13:45:14;12.48;;;2.60;;
25263;SDS011;13211;51.796;5.808;2023-08-30T13:47:43;8.27;;;1.98;;
25263;SDS011;13211;51.796;5.808;2023-08-30T13:50:13;10.88;;;2.35;;
25263;SDS011;13211;51.796;5.808;2023-08-30T13:52:41;9.57;;;2.22;;
25263;SDS011;13211;51.796;5.808;2023-08-30T13:55:08;11.50;;;2.83;;
25263;SDS011;13211;51.796;5.808;2023-08-30T13:57:37;10.77;;;2.30;;
25263;SDS011;13211;51.796;5.808;2023-08-30T14:00:05;9.88;;;2.40;;
25263;SDS011;13211;51.796;5.808;2023-08-30T14:02:36;7.95;;;2.20;;
25263;SDS011;13211;51.796;5.808;2023-08-30T14:05:04;12.32;;;2.10;;
25263;SDS011;13211;51.796;5.808;2023-08-30T14:07:33;14.43;;;2.05;;
25263;SDS011;13211;51.796;5.808;2023-08-30T14:10:01;7.47;;;1.90;;
25263;SDS011;13211;51.796;5.808;2023-08-30T14:12:29;8.68;;;1.77;;
25263;SDS011;13211;51.796;5.808;2023-08-30T14:14:57;7.05;;;1.65;;
25263;SDS011;13211;51.796;5.808;2023-08-30T14:17:25;8.60;;;1.83;;
25263;SDS011;13211;51.796;5.808;2023-08-30T14:19:53;11.30;;;2.30;;
25263;SDS011;13211;51.796;5.808;2023-08-30T14:22:21;6.00;;;1.58;;
25263;SDS011;13211;51.796;5.808;2023-08-30T14:24:49;8.38;;;2.05;;
25263;SDS011;13211;51.796;5.808;2023-08-30T14:27:34;12.30;;;2.88;;
25263;SDS011;13211;51.796;5.808;2023-08-30T14:30:02;11.25;;;2.35;;
25263;SDS011;13211;51.796;5.808;2023-08-30T14:32:30;12.05;;;2.67;;
25263;SDS011;13211;51.796;5.808;2023-08-30T14:34:57;11.23;;;2.13;;
25263;SDS011;13211;51.796;5.808;2023-08-30T14:37:29;11.90;;;2.80;;
25263;SDS011;13211;51.796;5.808;2023-08-30T14:39:57;12.55;;;2.70;;
25263;SDS011;13211;51.796;5.808;2023-08-30T14:42:26;9.88;;;2.25;;
25263;SDS011;13211;51.796;5.808;2023-08-30T14:44:53;7.88;;;2.10;;
25263;SDS011;13211;51.796;5.808;2023-08-30T14:47:21;10.55;;;2.20;;
25263;SDS011;13211;51.796;5.808;2023-08-30T14:49:49;12.73;;;2.40;;
25263;SDS011;13211;51.796;5.808;2023-08-30T14:52:16;6.28;;;1.70;;
25263;SDS011;13211;51.796;5.808;2023-08-30T14:54:44;13.02;;;2.05;;
25263;SDS011;13211;51.796;5.808;2023-08-30T14:57:15;8.98;;;2.20;;
25263;SDS011;13211;51.796;5.808;2023-08-30T14:59:43;11.48;;;2.05;;
25263;SDS011;13211;51.796;5.808;2023-08-30T15:02:11;9.45;;;2.00;;
25263;SDS011;13211;51.796;5.808;2023-08-30T15:04:39;7.43;;;1.80;;
25263;SDS011;13211;51.796;5.808;2023-08-30T15:07:07;10.32;;;1.80;;
25263;SDS011;13211;51.796;5.808;2023-08-30T15:09:34;8.43;;;2.25;;